sensor_id;sensor_type;location;lat;lon;timestamp;pressure;altitude;pressure_sealevel;temperature;humidity
61014;BME280;46899;47.542;19.082;2023-06-14T00:01:25;100179.78;;;12.93;100.00
61014;BME280;46899;47.542;19.082;2023-06-14T00:04:28;100171.31;;;12.88;100.00
61014;BME280;46899;47.542;19.082;2023-06-14T00:07:38;100174.97;;;12.84;100.00
61014;BME280;46899;47.542;19.082;2023-06-14T00:10:45;100174.50;;;12.76;100.00
61014;BME280;46899;47.542;19.082;2023-06-14T00:13:47;100168.56;;;12.72;100.00
61014;BME280;46899;47.542;19.082;2023-06-14T00:16:50;100179.16;;;12.69;100.00
61014;BME280;46899;47.542;19.082;2023-06-14T00:19:54;100176.69;;;12.66;100.00
61014;BME280;46899;47.542;19.082;2023-06-14T00:23:02;100177.59;;;12.65;100.00
61014;BME280;46899;47.542;19.082;2023-06-14T00:26:04;100182.91;;;12.64;100.00
61014;BME280;46899;47.542;19.082;2023-06-14T00:29:10;100184.88;;;12.59;100.00
61014;BME280;46899;47.542;19.082;2023-06-14T00:32:12;100186.78;;;12.55;100.00
61014;BME280;46899;47.542;19.082;2023-06-14T00:35:15;100184.22;;;12.54;100.00
61014;BME280;46899;47.542;19.082;2023-06-14T00:38:17;100186.84;;;12.54;100.00
61014;BME280;46899;47.542;19.082;2023-06-14T00:41:20;100194.78;;;12.51;100.00
61014;BME280;46899;47.542;19.082;2023-06-14T00:44:23;100185.94;;;12.55;100.00
61014;BME280;46899;47.542;19.082;2023-06-14T00:47:26;100192.78;;;12.57;100.00
61014;BME280;46899;47.542;19.082;2023-06-14T00:50:29;100197.00;;;12.60;100.00
61014;BME280;46899;47.542;19.082;2023-06-14T00:53:34;100196.22;;;12.58;100.00
61014;BME280;46899;47.542;19.082;2023-06-14T00:56:38;100191.94;;;12.57;100.00
61014;BME280;46899;47.542;19.082;2023-06-14T00:59:43;100194.97;;;12.48;100.00
61014;BME280;46899;47.542;19.082;2023-06-14T01:02:46;100190.72;;;12.45;100.00
61014;BME280;46899;47.542;19.082;2023-06-14T01:05:53;100192.69;;;12.40;100.00
61014;BME280;46899;47.542;19.082;2023-06-14T01:09:25;100190.16;;;12.39;100.00
61014;BME280;46899;47.542;19.082;2023-06-14T01:12:32;100184.13;;;12.36;100.00
61014;BME280;46899;47.542;19.082;2023-06-14T01:15:39;100193.88;;;12.33;100.00
61014;BME280;46899;47.542;19.082;2023-06-14T01:18:44;100185.31;;;12.29;100.00
61014;BME280;46899;47.542;19.082;2023-06-14T01:21:50;100182.91;;;12.25;100.00
61014;BME280;46899;47.542;19.082;2023-06-14T01:24:53;100185.87;;;12.17;100.00
61014;BME280;46899;47.542;19.082;2023-06-14T01:27:58;100185.28;;;12.11;100.00
61014;BME280;46899;47.542;19.082;2023-06-14T01:31:02;100180.16;;;12.09;100.00
61014;BME280;46899;47.542;19.082;2023-06-14T01:34:07;100175.06;;;12.06;100.00
61014;BME280;46899;47.542;19.082;2023-06-14T01:37:11;100174.50;;;12.00;100.00
61014;BME280;46899;47.542;19.082;2023-06-14T01:40:15;100191.09;;;11.97;100.00
61014;BME280;46899;47.542;19.082;2023-06-14T01:43:19;100187.72;;;11.95;100.00
61014;BME280;46899;47.542;19.082;2023-06-14T01:46:22;100188.69;;;11.93;100.00
61014;BME280;46899;47.542;19.082;2023-06-14T01:49:25;100200.03;;;11.92;100.00
61014;BME280;46899;47.542;19.082;2023-06-14T01:52:28;100190.53;;;11.91;100.00
61014;BME280;46899;47.542;19.082;2023-06-14T01:55:31;100191.59;;;11.87;100.00
61014;BME280;46899;47.542;19.082;2023-06-14T01:58:41;100191.78;;;11.82;100.00
61014;BME280;46899;47.542;19.082;2023-06-14T02:01:44;100196.37;;;11.76;100.00
61014;BME280;46899;47.542;19.082;2023-06-14T02:04:49;100197.50;;;11.70;100.00
61014;BME280;46899;47.542;19.082;2023-06-14T02:07:51;100200.22;;;11.67;100.00
61014;BME280;46899;47.542;19.082;2023-06-14T02:10:54;100202.81;;;11.67;100.00
61014;BME280;46899;47.542;19.082;2023-06-14T02:13:56;100203.78;;;11.64;100.00
61014;BME280;46899;47.542;19.082;2023-06-14T02:17:02;100204.34;;;11.73;100.00
61014;BME280;46899;47.542;19.082;2023-06-14T02:20:04;100207.00;;;11.71;100.00
61014;BME280;46899;47.542;19.082;2023-06-14T02:23:08;100206.31;;;11.66;100.00
61014;BME280;46899;47.542;19.082;2023-06-14T02:26:11;100205.53;;;11.64;100.00
61014;BME280;46899;47.542;19.082;2023-06-14T02:29:13;100204.88;;;11.59;100.00
61014;BME280;46899;47.542;19.082;2023-06-14T02:32:17;100208.53;;;11.55;100.00
61014;BME280;46899;47.542;19.082;2023-06-14T02:35:20;100213.81;;;11.53;100.00
61014;BME280;46899;47.542;19.082;2023-06-14T02:38:24;100206.22;;;11.47;100.00
61014;BME280;46899;47.542;19.082;2023-06-14T02:41:26;100198.50;;;11.46;100.00
61014;BME280;46899;47.542;19.082;2023-06-14T02:44:29;100200.97;;;11.49;100.00
61014;BME280;46899;47.542;19.082;2023-06-14T02:47:34;100203.59;;;11.49;100.00
61014;BME280;46899;47.542;19.082;2023-06-14T02:50:37;100202.72;;;11.48;100.00
61014;BME280;46899;47.542;19.082;2023-06-14T02:53:39;100199.25;;;11.48;100.00
61014;BME280;46899;47.542;19.082;2023-06-14T02:56:43;100195.97;;;11.44;100.00
61014;BME280;46899;47.542;19.082;2023-06-14T02:59:46;100191.53;;;11.46;100.00
61014;BME280;46899;47.542;19.082;2023-06-14T03:02:48;100190.78;;;11.43;100.00
61014;BME280;46899;47.542;19.082;2023-06-14T03:05:54;100194.19;;;11.45;100.00
61014;BME280;46899;47.542;19.082;2023-06-14T03:08:57;100195.88;;;11.46;100.00
61014;BME280;46899;47.542;19.082;2023-06-14T03:12:18;100190.59;;;11.47;100.00
61014;BME280;46899;47.542;19.082;2023-06-14T03:15:20;100195.75;;;11.49;100.00
61014;BME280;46899;47.542;19.082;2023-06-14T03:18:26;100194.97;;;11.47;100.00
61014;BME280;46899;47.542;19.082;2023-06-14T03:21:30;100197.41;;;11.51;100.00
61014;BME280;46899;47.542;19.082;2023-06-14T03:24:33;100196.44;;;11.54;100.00
61014;BME280;46899;47.542;19.082;2023-06-14T03:27:40;100201.19;;;11.64;100.00
61014;BME280;46899;47.542;19.082;2023-06-14T03:30:42;100201.41;;;11.80;100.00
61014;BME280;46899;47.542;19.082;2023-06-14T03:33:45;100205.66;;;11.83;100.00
61014;BME280;46899;47.542;19.082;2023-06-14T03:36:48;100206.41;;;11.85;100.00
61014;BME280;46899;47.542;19.082;2023-06-14T03:39:51;100208.78;;;11.91;100.00
61014;BME280;46899;47.542;19.082;2023-06-14T03:42:54;100201.75;;;11.93;100.00
61014;BME280;46899;47.542;19.082;2023-06-14T03:45:57;100210.28;;;11.96;100.00
61014;BME280;46899;47.542;19.082;2023-06-14T03:49:00;100210.59;;;12.09;100.00
61014;BME280;46899;47.542;19.082;2023-06-14T03:52:03;100211.16;;;12.15;100.00
61014;BME280;46899;47.542;19.082;2023-06-14T03:55:06;100211.03;;;12.18;100.00
61014;BME280;46899;47.542;19.082;2023-06-14T03:58:13;100215.03;;;12.27;100.00
61014;BME280;46899;47.542;19.082;2023-06-14T04:01:16;100219.84;;;12.36;100.00
61014;BME280;46899;47.542;19.082;2023-06-14T04:04:18;100220.53;;;12.40;100.00
61014;BME280;46899;47.542;19.082;2023-06-14T04:07:21;100215.75;;;12.49;100.00
61014;BME280;46899;47.542;19.082;2023-06-14T04:10:23;100212.69;;;12.60;100.00
61014;BME280;46899;47.542;19.082;2023-06-14T04:13:26;100218.25;;;12.71;100.00
61014;BME280;46899;47.542;19.082;2023-06-14T04:16:29;100219.56;;;12.79;100.00
61014;BME280;46899;47.542;19.082;2023-06-14T04:19:34;100231.44;;;12.86;100.00
61014;BME280;46899;47.542;19.082;2023-06-14T04:22:37;100229.19;;;12.97;100.00
61014;BME280;46899;47.542;19.082;2023-06-14T04:25:39;100230.53;;;13.06;100.00
61014;BME280;46899;47.542;19.082;2023-06-14T04:28:42;100229.97;;;13.18;100.00
61014;BME280;46899;47.542;19.082;2023-06-14T04:31:47;100235.44;;;13.31;100.00
61014;BME280;46899;47.542;19.082;2023-06-14T04:34:50;100234.81;;;13.44;100.00
61014;BME280;46899;47.542;19.082;2023-06-14T04:37:56;100238.22;;;13.63;100.00
61014;BME280;46899;47.542;19.082;2023-06-14T04:41:00;100234.16;;;13.75;100.00
61014;BME280;46899;47.542;19.082;2023-06-14T04:44:04;100237.91;;;13.87;100.00
61014;BME280;46899;47.542;19.082;2023-06-14T04:47:09;100232.06;;;13.99;100.00
61014;BME280;46899;47.542;19.082;2023-06-14T04:50:12;100237.81;;;14.05;100.00
61014;BME280;46899;47.542;19.082;2023-06-14T04:53:15;100245.28;;;14.13;100.00
61014;BME280;46899;47.542;19.082;2023-06-14T04:56:17;100246.12;;;14.30;100.00
61014;BME280;46899;47.542;19.082;2023-06-14T04:59:21;100247.13;;;14.45;100.00
61014;BME280;46899;47.542;19.082;2023-06-14T05:02:25;100243.97;;;14.71;100.00
61014;BME280;46899;47.542;19.082;2023-06-14T05:05:28;100251.16;;;14.83;100.00
61014;BME280;46899;47.542;19.082;2023-06-14T05:08:31;100253.28;;;14.92;100.00
61014;BME280;46899;47.542;19.082;2023-06-14T05:11:33;100253.97;;;15.12;98.47
61014;BME280;46899;47.542;19.082;2023-06-14T05:14:36;100246.72;;;15.17;98.36
61014;BME280;46899;47.542;19.082;2023-06-14T05:17:39;100248.62;;;15.29;96.36
61014;BME280;46899;47.542;19.082;2023-06-14T05:20:42;100245.41;;;15.39;96.29
61014;BME280;46899;47.542;19.082;2023-06-14T05:23:45;100244.97;;;15.62;95.36
61014;BME280;46899;47.542;19.082;2023-06-14T05:26:47;100263.66;;;16.02;90.49
61014;BME280;46899;47.542;19.082;2023-06-14T05:29:51;100257.81;;;16.26;88.50
61014;BME280;46899;47.542;19.082;2023-06-14T05:32:57;100257.97;;;16.53;84.47
61014;BME280;46899;47.542;19.082;2023-06-14T05:36:00;100249.41;;;16.64;84.72
61014;BME280;46899;47.542;19.082;2023-06-14T05:39:02;100251.94;;;16.79;84.88
61014;BME280;46899;47.542;19.082;2023-06-14T05:42:05;100259.81;;;16.93;86.09
61014;BME280;46899;47.542;19.082;2023-06-14T05:45:08;100250.53;;;17.02;84.18
61014;BME280;46899;47.542;19.082;2023-06-14T05:48:11;100253.47;;;17.24;82.19
61014;BME280;46899;47.542;19.082;2023-06-14T05:51:13;100250.50;;;17.16;81.90
61014;BME280;46899;47.542;19.082;2023-06-14T05:54:17;100259.53;;;17.12;82.40
61014;BME280;46899;47.542;19.082;2023-06-14T05:57:19;100255.38;;;17.08;82.56
61014;BME280;46899;47.542;19.082;2023-06-14T06:00:22;100257.41;;;17.17;81.64
61014;BME280;46899;47.542;19.082;2023-06-14T06:03:25;100257.69;;;17.27;82.06
61014;BME280;46899;47.542;19.082;2023-06-14T06:06:27;100253.97;;;17.43;81.18
61014;BME280;46899;47.542;19.082;2023-06-14T06:09:31;100262.62;;;17.72;79.03
61014;BME280;46899;47.542;19.082;2023-06-14T06:12:33;100265.59;;;18.19;75.42
61014;BME280;46899;47.542;19.082;2023-06-14T06:15:36;100256.22;;;18.78;73.40
61014;BME280;46899;47.542;19.082;2023-06-14T06:18:38;100260.69;;;19.14;69.99
61014;BME280;46899;47.542;19.082;2023-06-14T06:21:41;100249.78;;;19.55;69.04
61014;BME280;46899;47.542;19.082;2023-06-14T06:24:43;100260.47;;;19.77;68.66
61014;BME280;46899;47.542;19.082;2023-06-14T06:27:47;100261.53;;;20.09;64.99
61014;BME280;46899;47.542;19.082;2023-06-14T06:30:49;100261.50;;;20.33;64.36
61014;BME280;46899;47.542;19.082;2023-06-14T06:33:55;100268.03;;;20.95;62.63
61014;BME280;46899;47.542;19.082;2023-06-14T06:36:58;100266.34;;;20.94;60.86
61014;BME280;46899;47.542;19.082;2023-06-14T06:40:00;100267.19;;;20.95;60.72
61014;BME280;46899;47.542;19.082;2023-06-14T06:43:03;100272.25;;;20.98;60.09
61014;BME280;46899;47.542;19.082;2023-06-14T06:46:10;100262.84;;;20.83;60.98
61014;BME280;46899;47.542;19.082;2023-06-14T06:49:15;100266.97;;;21.09;61.05
61014;BME280;46899;47.542;19.082;2023-06-14T06:52:18;100257.06;;;22.79;54.24
61014;BME280;46899;47.542;19.082;2023-06-14T06:55:20;100261.19;;;25.66;45.39
61014;BME280;46899;47.542;19.082;2023-06-14T06:58:23;100264.28;;;27.99;40.61
61014;BME280;46899;47.542;19.082;2023-06-14T07:01:26;100275.81;;;27.84;39.81
61014;BME280;46899;47.542;19.082;2023-06-14T07:04:31;100259.12;;;27.32;40.73
61014;BME280;46899;47.542;19.082;2023-06-14T07:07:34;100260.34;;;30.20;35.00
61014;BME280;46899;47.542;19.082;2023-06-14T07:10:36;100259.91;;;29.48;36.03
61014;BME280;46899;47.542;19.082;2023-06-14T07:13:39;100269.94;;;29.16;36.24
61014;BME280;46899;47.542;19.082;2023-06-14T07:16:42;100269.75;;;29.17;35.89
61014;BME280;46899;47.542;19.082;2023-06-14T07:19:45;100278.31;;;28.41;36.88
61014;BME280;46899;47.542;19.082;2023-06-14T07:22:48;100280.00;;;28.34;37.08
61014;BME280;46899;47.542;19.082;2023-06-14T07:25:51;100279.81;;;29.15;35.93
61014;BME280;46899;47.542;19.082;2023-06-14T07:28:53;100279.66;;;31.91;31.39
61014;BME280;46899;47.542;19.082;2023-06-14T07:31:56;100268.56;;;31.58;30.33
61014;BME280;46899;47.542;19.082;2023-06-14T07:34:58;100270.47;;;28.32;36.11
61014;BME280;46899;47.542;19.082;2023-06-14T07:38:01;100272.88;;;29.37;34.75
61014;BME280;46899;47.542;19.082;2023-06-14T07:41:03;100275.91;;;34.43;27.24
61014;BME280;46899;47.542;19.082;2023-06-14T07:44:06;100279.44;;;38.20;22.73
61014;BME280;46899;47.542;19.082;2023-06-14T07:47:08;100286.09;;;38.82;21.22
61014;BME280;46899;47.542;19.082;2023-06-14T07:50:11;100284.91;;;36.27;23.70
61014;BME280;46899;47.542;19.082;2023-06-14T07:53:16;100289.59;;;32.60;27.96
61014;BME280;46899;47.542;19.082;2023-06-14T07:56:18;100276.69;;;29.96;31.90
61014;BME280;46899;47.542;19.082;2023-06-14T07:59:21;100274.00;;;28.08;35.57
61014;BME280;46899;47.542;19.082;2023-06-14T08:02:23;100275.72;;;27.43;37.16
61014;BME280;46899;47.542;19.082;2023-06-14T08:05:26;100273.69;;;26.44;39.02
61014;BME280;46899;47.542;19.082;2023-06-14T08:08:29;100277.44;;;27.10;38.85
61014;BME280;46899;47.542;19.082;2023-06-14T08:11:31;100272.56;;;28.77;35.92
61014;BME280;46899;47.542;19.082;2023-06-14T08:14:36;100283.47;;;29.14;33.62
61014;BME280;46899;47.542;19.082;2023-06-14T08:17:39;100282.13;;;28.55;34.97
61014;BME280;46899;47.542;19.082;2023-06-14T08:20:41;100272.13;;;27.76;35.43
61014;BME280;46899;47.542;19.082;2023-06-14T08:23:44;100277.06;;;29.93;32.37
61014;BME280;46899;47.542;19.082;2023-06-14T08:26:47;100279.53;;;33.09;27.50
61014;BME280;46899;47.542;19.082;2023-06-14T08:29:50;100280.31;;;34.57;26.09
61014;BME280;46899;47.542;19.082;2023-06-14T08:32:52;100278.16;;;33.87;26.79
61014;BME280;46899;47.542;19.082;2023-06-14T08:36:16;100278.41;;;32.35;28.22
61014;BME280;46899;47.542;19.082;2023-06-14T08:39:19;100278.56;;;33.91;26.54
61014;BME280;46899;47.542;19.082;2023-06-14T08:42:22;100292.50;;;32.59;27.85
61014;BME280;46899;47.542;19.082;2023-06-14T08:45:33;100281.50;;;30.23;30.47
61014;BME280;46899;47.542;19.082;2023-06-14T08:48:35;100292.38;;;28.43;33.21
61014;BME280;46899;47.542;19.082;2023-06-14T08:51:38;100294.72;;;26.73;36.94
61014;BME280;46899;47.542;19.082;2023-06-14T08:54:43;100294.81;;;26.12;39.23
61014;BME280;46899;47.542;19.082;2023-06-14T08:57:46;100297.16;;;24.52;40.27
61014;BME280;46899;47.542;19.082;2023-06-14T09:00:50;100305.16;;;24.32;42.20
61014;BME280;46899;47.542;19.082;2023-06-14T09:03:54;100298.75;;;24.25;43.17
61014;BME280;46899;47.542;19.082;2023-06-14T09:06:57;100313.69;;;24.45;43.22
61014;BME280;46899;47.542;19.082;2023-06-14T09:10:13;100304.31;;;24.03;43.66
61014;BME280;46899;47.542;19.082;2023-06-14T09:13:17;100305.47;;;24.10;43.80
61014;BME280;46899;47.542;19.082;2023-06-14T09:16:20;100305.41;;;23.91;44.13
61014;BME280;46899;47.542;19.082;2023-06-14T09:19:23;100315.13;;;24.96;42.05
61014;BME280;46899;47.542;19.082;2023-06-14T09:22:28;100311.00;;;25.38;40.10
61014;BME280;46899;47.542;19.082;2023-06-14T09:25:31;100307.25;;;25.31;41.13
61014;BME280;46899;47.542;19.082;2023-06-14T09:28:44;100318.59;;;25.33;41.81
61014;BME280;46899;47.542;19.082;2023-06-14T09:31:48;100305.69;;;25.01;41.98
61014;BME280;46899;47.542;19.082;2023-06-14T09:34:50;100304.53;;;24.77;43.44
61014;BME280;46899;47.542;19.082;2023-06-14T09:37:53;100307.94;;;24.50;42.85
61014;BME280;46899;47.542;19.082;2023-06-14T09:40:58;100303.47;;;24.41;44.09
61014;BME280;46899;47.542;19.082;2023-06-14T09:44:01;100298.16;;;24.41;42.61
61014;BME280;46899;47.542;19.082;2023-06-14T09:47:09;100295.63;;;24.39;44.27
61014;BME280;46899;47.542;19.082;2023-06-14T09:50:12;100287.84;;;25.66;40.98
61014;BME280;46899;47.542;19.082;2023-06-14T09:53:14;100285.81;;;26.64;36.37
61014;BME280;46899;47.542;19.082;2023-06-14T09:56:27;100279.22;;;26.51;37.12
61014;BME280;46899;47.542;19.082;2023-06-14T09:59:31;100279.66;;;26.89;36.86
61014;BME280;46899;47.542;19.082;2023-06-14T10:02:35;100278.78;;;27.14;35.61
61014;BME280;46899;47.542;19.082;2023-06-14T10:05:46;100275.78;;;27.26;35.01
61014;BME280;46899;47.542;19.082;2023-06-14T10:08:55;100274.59;;;27.62;34.48
61014;BME280;46899;47.542;19.082;2023-06-14T10:11:58;100273.16;;;27.34;34.45
61014;BME280;46899;47.542;19.082;2023-06-14T10:15:01;100269.59;;;27.75;34.27
61014;BME280;46899;47.542;19.082;2023-06-14T10:27:44;100268.25;;;28.76;30.50
61014;BME280;46899;47.542;19.082;2023-06-14T10:31:02;100268.84;;;28.86;29.53
61014;BME280;46899;47.542;19.082;2023-06-14T10:34:06;100257.56;;;27.95;30.89
61014;BME280;46899;47.542;19.082;2023-06-14T10:37:13;100260.91;;;27.81;31.49
61014;BME280;46899;47.542;19.082;2023-06-14T10:40:29;100256.78;;;28.03;30.83
61014;BME280;46899;47.542;19.082;2023-06-14T10:43:32;100261.94;;;28.20;31.21
61014;BME280;46899;47.542;19.082;2023-06-14T10:46:35;100259.69;;;27.51;31.08
61014;BME280;46899;47.542;19.082;2023-06-14T10:49:44;100260.50;;;26.42;34.25
61014;BME280;46899;47.542;19.082;2023-06-14T10:52:48;100261.03;;;26.46;34.31
61014;BME280;46899;47.542;19.082;2023-06-14T10:55:51;100258.53;;;26.44;34.54
61014;BME280;46899;47.542;19.082;2023-06-14T10:58:53;100253.59;;;26.32;36.79
61014;BME280;46899;47.542;19.082;2023-06-14T11:02:08;100245.78;;;25.95;38.16
61014;BME280;46899;47.542;19.082;2023-06-14T11:05:16;100251.22;;;25.86;37.69
61014;BME280;46899;47.542;19.082;2023-06-14T11:11:31;100248.00;;;25.47;38.13
61014;BME280;46899;47.542;19.082;2023-06-14T11:14:35;100243.47;;;25.02;38.58
61014;BME280;46899;47.542;19.082;2023-06-14T11:17:37;100238.66;;;25.33;37.92
61014;BME280;46899;47.542;19.082;2023-06-14T11:20:40;100239.25;;;25.54;37.29
61014;BME280;46899;47.542;19.082;2023-06-14T11:23:48;100241.56;;;26.28;36.38
61014;BME280;46899;47.542;19.082;2023-06-14T11:26:51;100238.34;;;26.50;35.33
61014;BME280;46899;47.542;19.082;2023-06-14T11:29:53;100242.34;;;26.46;35.43
61014;BME280;46899;47.542;19.082;2023-06-14T11:32:56;100237.91;;;26.80;33.94
61014;BME280;46899;47.542;19.082;2023-06-14T11:36:03;100229.19;;;26.53;35.13
61014;BME280;46899;47.542;19.082;2023-06-14T11:39:07;100233.53;;;26.54;35.18
61014;BME280;46899;47.542;19.082;2023-06-14T11:42:17;100239.59;;;26.12;36.75
61014;BME280;46899;47.542;19.082;2023-06-14T11:45:20;100240.50;;;26.46;35.83
61014;BME280;46899;47.542;19.082;2023-06-14T11:48:23;100236.94;;;26.12;36.57
61014;BME280;46899;47.542;19.082;2023-06-14T11:51:25;100240.06;;;26.59;37.39
61014;BME280;46899;47.542;19.082;2023-06-14T11:54:28;100233.53;;;26.54;37.11
61014;BME280;46899;47.542;19.082;2023-06-14T11:57:33;100235.84;;;26.23;37.25
61014;BME280;46899;47.542;19.082;2023-06-14T12:00:36;100234.63;;;26.17;38.10
61014;BME280;46899;47.542;19.082;2023-06-14T12:03:39;100231.22;;;26.07;37.71
61014;BME280;46899;47.542;19.082;2023-06-14T12:06:49;100240.59;;;26.11;37.84
61014;BME280;46899;47.542;19.082;2023-06-14T12:12:58;100240.22;;;25.53;38.97
61014;BME280;46899;47.542;19.082;2023-06-14T12:16:01;100247.53;;;25.51;38.38
61014;BME280;46899;47.542;19.082;2023-06-14T12:19:25;100243.28;;;25.58;38.23
61014;BME280;46899;47.542;19.082;2023-06-14T12:22:28;100240.47;;;25.15;39.76
61014;BME280;46899;47.542;19.082;2023-06-14T12:25:31;100236.41;;;24.74;40.13
61014;BME280;46899;47.542;19.082;2023-06-14T12:28:34;100240.69;;;24.94;39.63
61014;BME280;46899;47.542;19.082;2023-06-14T12:31:37;100242.50;;;25.21;38.40
61014;BME280;46899;47.542;19.082;2023-06-14T12:34:40;100238.03;;;24.58;39.81
61014;BME280;46899;47.542;19.082;2023-06-14T12:37:42;100238.03;;;25.39;38.74
61014;BME280;46899;47.542;19.082;2023-06-14T12:40:45;100240.37;;;26.05;36.95
61014;BME280;46899;47.542;19.082;2023-06-14T12:43:49;100245.16;;;26.01;36.89
61014;BME280;46899;47.542;19.082;2023-06-14T12:46:52;100251.13;;;25.60;36.23
61014;BME280;46899;47.542;19.082;2023-06-14T12:49:57;100242.81;;;24.54;38.29
61014;BME280;46899;47.542;19.082;2023-06-14T12:52:59;100241.34;;;25.06;37.43
61014;BME280;46899;47.542;19.082;2023-06-14T12:56:02;100237.03;;;25.85;36.89
61014;BME280;46899;47.542;19.082;2023-06-14T12:59:04;100241.44;;;26.12;34.90
61014;BME280;46899;47.542;19.082;2023-06-14T13:02:17;100240.63;;;26.37;35.40
61014;BME280;46899;47.542;19.082;2023-06-14T13:05:20;100237.44;;;26.67;32.90
61014;BME280;46899;47.542;19.082;2023-06-14T13:08:25;100233.78;;;26.17;34.48
61014;BME280;46899;47.542;19.082;2023-06-14T13:11:28;100222.75;;;25.94;35.33
61014;BME280;46899;47.542;19.082;2023-06-14T13:14:30;100231.06;;;25.91;35.50
61014;BME280;46899;47.542;19.082;2023-06-14T13:17:33;100228.09;;;25.41;34.78
61014;BME280;46899;47.542;19.082;2023-06-14T13:20:40;100224.53;;;25.05;36.40
61014;BME280;46899;47.542;19.082;2023-06-14T13:23:43;100230.03;;;24.94;35.54
61014;BME280;46899;47.542;19.082;2023-06-14T13:26:45;100219.56;;;24.56;36.57
61014;BME280;46899;47.542;19.082;2023-06-14T13:29:48;100223.28;;;24.73;36.86
61014;BME280;46899;47.542;19.082;2023-06-14T13:32:50;100231.16;;;24.55;36.75
61014;BME280;46899;47.542;19.082;2023-06-14T13:35:54;100223.47;;;24.52;35.70
61014;BME280;46899;47.542;19.082;2023-06-14T13:38:56;100227.22;;;24.59;36.00
61014;BME280;46899;47.542;19.082;2023-06-14T13:42:01;100224.41;;;24.80;35.98
61014;BME280;46899;47.542;19.082;2023-06-14T13:45:03;100220.44;;;24.84;34.80
61014;BME280;46899;47.542;19.082;2023-06-14T13:48:06;100220.59;;;24.73;34.14
61014;BME280;46899;47.542;19.082;2023-06-14T13:51:09;100215.84;;;24.76;33.73
61014;BME280;46899;47.542;19.082;2023-06-14T13:54:12;100210.28;;;24.97;35.06
61014;BME280;46899;47.542;19.082;2023-06-14T13:57:17;100204.53;;;25.19;32.67
61014;BME280;46899;47.542;19.082;2023-06-14T14:00:20;100213.19;;;25.03;32.95
61014;BME280;46899;47.542;19.082;2023-06-14T14:03:25;100214.28;;;25.28;34.26
61014;BME280;46899;47.542;19.082;2023-06-14T14:06:27;100209.94;;;25.09;35.30
61014;BME280;46899;47.542;19.082;2023-06-14T14:09:30;100205.34;;;25.02;35.37
61014;BME280;46899;47.542;19.082;2023-06-14T14:12:33;100209.47;;;25.14;34.93
61014;BME280;46899;47.542;19.082;2023-06-14T14:15:36;100208.44;;;25.25;33.90
61014;BME280;46899;47.542;19.082;2023-06-14T14:18:38;100205.69;;;25.17;34.28
61014;BME280;46899;47.542;19.082;2023-06-14T14:21:41;100205.84;;;25.15;35.33
61014;BME280;46899;47.542;19.082;2023-06-14T14:24:44;100208.28;;;25.26;35.12
61014;BME280;46899;47.542;19.082;2023-06-14T14:27:47;100208.78;;;25.12;34.26
61014;BME280;46899;47.542;19.082;2023-06-14T14:30:49;100210.72;;;24.92;33.66
61014;BME280;46899;47.542;19.082;2023-06-14T14:33:52;100208.91;;;24.93;35.04
61014;BME280;46899;47.542;19.082;2023-06-14T14:36:54;100206.47;;;24.99;33.48
61014;BME280;46899;47.542;19.082;2023-06-14T14:39:57;100211.16;;;25.15;32.99
61014;BME280;46899;47.542;19.082;2023-06-14T14:42:59;100206.53;;;25.35;31.34
61014;BME280;46899;47.542;19.082;2023-06-14T14:46:02;100204.94;;;25.42;30.95
61014;BME280;46899;47.542;19.082;2023-06-14T14:49:04;100205.94;;;25.41;30.97
61014;BME280;46899;47.542;19.082;2023-06-14T14:52:07;100212.81;;;25.78;31.26
61014;BME280;46899;47.542;19.082;2023-06-14T14:55:15;100210.22;;;25.69;30.63
61014;BME280;46899;47.542;19.082;2023-06-14T14:58:18;100206.59;;;25.52;31.02
61014;BME280;46899;47.542;19.082;2023-06-14T15:01:21;100210.13;;;25.43;31.28
61014;BME280;46899;47.542;19.082;2023-06-14T15:04:24;100197.28;;;25.11;31.51
61014;BME280;46899;47.542;19.082;2023-06-14T15:07:27;100201.75;;;24.57;33.08
61014;BME280;46899;47.542;19.082;2023-06-14T15:10:30;100204.06;;;24.42;34.83
61014;BME280;46899;47.542;19.082;2023-06-14T15:13:32;100198.88;;;24.40;34.75
61014;BME280;46899;47.542;19.082;2023-06-14T15:16:35;100192.72;;;24.40;34.57
61014;BME280;46899;47.542;19.082;2023-06-14T15:19:38;100193.94;;;24.45;34.68
61014;BME280;46899;47.542;19.082;2023-06-14T15:22:40;100198.16;;;24.48;35.17
61014;BME280;46899;47.542;19.082;2023-06-14T15:25:43;100195.09;;;24.33;35.11
61014;BME280;46899;47.542;19.082;2023-06-14T15:28:46;100194.00;;;24.26;36.00
61014;BME280;46899;47.542;19.082;2023-06-14T15:31:48;100193.91;;;24.18;37.11
61014;BME280;46899;47.542;19.082;2023-06-14T15:34:51;100194.34;;;23.85;37.38
61014;BME280;46899;47.542;19.082;2023-06-14T15:37:53;100188.38;;;23.54;38.14
61014;BME280;46899;47.542;19.082;2023-06-14T15:40:56;100189.91;;;23.47;39.23
61014;BME280;46899;47.542;19.082;2023-06-14T15:43:59;100186.13;;;23.50;39.32
61014;BME280;46899;47.542;19.082;2023-06-14T15:47:02;100182.59;;;23.97;38.86
61014;BME280;46899;47.542;19.082;2023-06-14T15:50:05;100186.06;;;24.17;38.95
61014;BME280;46899;47.542;19.082;2023-06-14T15:53:10;100183.91;;;23.64;40.06
61014;BME280;46899;47.542;19.082;2023-06-14T15:56:12;100187.50;;;23.44;40.70
61014;BME280;46899;47.542;19.082;2023-06-14T15:59:15;100183.66;;;23.08;41.13
61014;BME280;46899;47.542;19.082;2023-06-14T16:02:17;100191.19;;;23.03;42.15